Terminal Aerodrome Forecast
Issued by NWS

Home | Current Version | Previous Version | Text Only | Print | Product List | Glossary On
Versions: 1 2 3 4 5 6 7 8 9 10 11 12 13 14 15 16 17 18 19 20 21 22 23 24
000
FTUS44 KEPZ 170545
TAFTCS
TAF
KTCS 170545Z 1706/1806 30007KT P6SM SCT025 BKN060 BKN080
     FM171500 04007KT P6SM SCT060 BKN100
     FM171900 13005KT P6SM VCSH SCT030 BKN060 BKN100
     FM180500 29006KT P6SM SCT060 BKN100=

USA.gov is the U.S. government's official web portal to all federal, state and local government web resources and services.